Time;durP1;ratioP1;P1;durP2;ratioP2;P2;SDS_P1;SDS_P2;PMS_P1;PMS_P2;Temp;Humidity;BMP_temperature;BMP_pressure;BME280_temperature;BME280_humidity;BME280_pressure;Samples;Min_cycle;Max_cycle;Signal;HPM_P1;HPM_P2
2023/09/28 00:00:35;;;;;;;5.57;4.60;;;13.90;99.90;;;;;;5033022;28;20181;-80
2023/09/28 00:02:43;;;;;;;5.23;4.83;;;13.80;99.90;;;;;;5034005;28;20214;-81
2023/09/28 00:05:10;;;;;;;5.80;4.90;;;13.80;99.90;;;;;;5032679;28;20174;-81
2023/09/28 00:07:36;;;;;;;4.67;4.13;;;13.70;99.90;;;;;;5032299;28;20178;-81
2023/09/28 00:10:03;;;;;;;4.83;4.43;;;13.80;99.90;;;;;;5032888;28;20174;-80
2023/09/28 00:12:29;;;;;;;7.00;4.40;;;13.80;99.90;;;;;;5033864;28;20674;-80
2023/09/28 00:14:54;;;;;;;4.87;4.33;;;13.60;99.90;;;;;;5033903;28;20177;-81
2023/09/28 00:17:20;;;;;;;4.70;3.90;;;13.80;99.90;;;;;;5032632;28;20186;-81
2023/09/28 00:19:45;;;;;;;4.83;4.43;;;13.90;99.90;;;;;;5036191;28;20542;-80
2023/09/28 00:22:11;;;;;;;5.87;4.70;;;13.80;99.90;;;;;;5036155;28;20273;-81
2023/09/28 00:24:37;;;;;;;4.63;4.23;;;13.90;99.90;;;;;;5036618;28;20271;-80
2023/09/28 00:27:02;;;;;;;5.10;4.60;;;14.00;99.90;;;;;;5036319;28;20174;-81
2023/09/28 00:29:28;;;;;;;5.00;4.50;;;14.00;99.90;;;;;;5036088;28;20174;-81
2023/09/28 00:31:54;;;;;;;4.53;3.90;;;13.90;99.90;;;;;;5037522;28;20209;-81
2023/09/28 00:34:19;;;;;;;6.43;4.80;;;13.80;99.90;;;;;;5036506;28;20177;-80
2023/09/28 00:36:45;;;;;;;6.30;4.30;;;13.80;99.90;;;;;;5035796;28;20221;-81
2023/09/28 00:39:11;;;;;;;5.00;4.50;;;13.80;99.90;;;;;;5037599;28;20309;-81
2023/09/28 00:41:37;;;;;;;4.90;4.37;;;13.80;99.90;;;;;;5059036;23;20228;-80
2023/09/28 00:44:04;;;;;;;4.53;4.13;;;13.80;99.90;;;;;;5019180;28;20171;-80
2023/09/28 00:46:33;;;;;;;4.77;4.37;;;13.80;99.90;;;;;;5036605;28;20185;-80
2023/09/28 00:49:03;;;;;;;4.83;4.43;;;13.80;99.90;;;;;;5018729;28;20176;-80
2023/09/28 00:51:31;;;;;;;5.67;4.77;;;13.80;99.90;;;;;;5036035;28;20229;-80
2023/09/28 00:54:00;;;;;;;5.37;4.50;;;13.70;99.90;;;;;;5018572;28;20178;-79
2023/09/28 00:56:26;;;;;;;4.87;4.40;;;13.60;99.90;;;;;;5018931;28;20215;-80
2023/09/28 00:58:54;;;;;;;5.50;4.83;;;13.40;99.90;;;;;;5036412;28;20230;-80
2023/09/28 01:01:20;;;;;;;5.40;4.90;;;13.60;99.90;;;;;;5018158;28;20243;-79
2023/09/28 01:03:46;;;;;;;5.73;4.67;;;13.50;99.90;;;;;;5036132;28;20260;-80
2023/09/28 01:06:12;;;;;;;5.77;4.40;;;13.50;99.90;;;;;;5018464;28;20174;-80
2023/09/28 01:08:38;;;;;;;5.33;4.77;;;13.40;99.90;;;;;;5036235;28;20174;-80
2023/09/28 01:11:09;;;;;;;5.73;4.97;;;13.60;99.90;;;;;;5018364;28;20174;-80
2023/09/28 01:13:35;;;;;;;5.50;5.00;;;13.70;99.90;;;;;;5036260;28;20674;-79
2023/09/28 01:16:00;;;;;;;5.60;5.10;;;13.70;99.90;;;;;;5018295;28;20174;-80
2023/09/28 01:18:26;;;;;;;5.53;5.03;;;13.70;99.90;;;;;;5018402;28;20198;-80
2023/09/28 01:20:52;;;;;;;6.90;4.83;;;13.70;99.90;;;;;;5018096;28;20239;-80
2023/09/28 01:23:17;;;;;;;5.60;4.53;;;13.70;99.90;;;;;;5036160;28;20186;-80
2023/09/28 01:25:45;;;;;;;5.07;4.30;;;13.70;99.90;;;;;;5035980;28;20205;-80
2023/09/28 01:28:11;;;;;;;4.83;3.50;;;13.60;99.90;;;;;;5035802;28;20605;-80
2023/09/28 01:30:36;;;;;;;5.17;4.60;;;13.30;99.00;;;;;;5016415;28;20666;-79
2023/09/28 01:33:02;;;;;;;5.40;4.90;;;13.20;99.90;;;;;;5035639;28;20213;-80
2023/09/28 01:35:29;;;;;;;5.47;4.80;;;13.10;99.90;;;;;;5035753;28;20182;-80
2023/09/28 01:38:10;;;;;;;7.73;5.40;;;13.30;99.90;;;;;;5035463;28;20206;-80
2023/09/28 01:40:39;;;;;;;7.87;5.93;;;13.40;99.90;;;;;;5035521;28;20236;-77
2023/09/28 01:43:05;;;;;;;5.73;5.10;;;13.50;99.90;;;;;;5035562;28;20606;-80
2023/09/28 01:45:30;;;;;;;5.97;5.20;;;13.70;99.90;;;;;;5035252;28;20197;-81
2023/09/28 01:47:56;;;;;;;5.90;5.17;;;13.80;99.90;;;;;;5017680;28;20170;-80
2023/09/28 01:50:22;;;;;;;5.93;5.33;;;13.80;99.90;;;;;;5035097;28;20261;-80
2023/09/28 01:52:47;;;;;;;5.90;5.33;;;13.60;99.90;;;;;;5017448;28;20682;-80
2023/09/28 01:55:13;;;;;;;5.87;5.37;;;13.50;99.90;;;;;;5035323;28;20178;-81
2023/09/28 01:57:39;;;;;;;5.73;4.77;;;13.40;99.90;;;;;;5017517;28;20178;-80
2023/09/28 02:00:18;;;;;;;6.97;5.27;;;13.30;99.90;;;;;;5017368;28;20170;-80
2023/09/28 02:02:44;;;;;;;5.10;4.60;;;13.20;99.90;;;;;;5035134;28;20225;-80
2023/09/28 02:05:11;;;;;;;6.80;5.00;;;13.20;99.90;;;;;;5017433;28;20179;-80
2023/09/28 02:07:37;;;;;;;5.30;4.80;;;13.10;99.90;;;;;;5035482;28;20182;-79
2023/09/28 02:10:04;;;;;;;5.17;4.67;;;13.20;99.90;;;;;;5035045;28;20170;-80
2023/09/28 02:12:30;;;;;;;7.70;5.20;;;13.20;99.90;;;;;;5034870;28;20197;-80
2023/09/28 02:14:56;;;;;;;5.63;4.97;;;13.00;99.90;;;;;;5017197;28;20178;-80
2023/09/28 02:17:22;;;;;;;5.27;4.77;;;13.10;99.90;;;;;;5017605;28;20178;-80
2023/09/28 02:19:50;;;;;;;6.17;5.20;;;12.90;99.90;;;;;;5034791;28;20206;-80
2023/09/28 02:22:15;;;;;;;6.13;5.53;;;12.90;99.90;;;;;;5016648;28;20198;-81
2023/09/28 02:24:41;;;;;;;8.77;5.50;;;12.80;99.90;;;;;;5017231;28;20166;-80
2023/09/28 02:27:07;;;;;;;7.07;6.13;;;12.70;99.90;;;;;;5017026;28;20174;-80
2023/09/28 02:29:33;;;;;;;8.70;6.40;;;12.70;99.90;;;;;;5034678;28;20248;-80
2023/09/28 02:31:59;;;;;;;7.03;6.33;;;12.90;99.90;;;;;;5016623;28;20202;-80
2023/09/28 02:34:24;;;;;;;7.63;6.83;;;13.00;99.90;;;;;;5016880;28;20185;-80
2023/09/28 02:36:50;;;;;;;6.90;5.77;;;13.10;99.90;;;;;;5017071;28;20269;-80
2023/09/28 02:39:16;;;;;;;6.30;5.70;;;13.10;99.90;;;;;;5017019;28;20561;-80
2023/09/28 02:41:41;;;;;;;7.57;5.80;;;13.20;99.90;;;;;;5033898;28;20605;-80
2023/09/28 02:44:07;;;;;;;8.27;6.13;;;13.20;99.90;;;;;;5016899;28;20576;-80
2023/09/28 02:46:32;;;;;;;8.47;6.53;;;13.20;99.90;;;;;;5016993;28;20234;-82
2023/09/28 02:48:58;;;;;;;6.70;6.10;;;13.30;99.90;;;;;;5034621;28;20175;-80
2023/09/28 02:51:23;;;;;;;6.53;5.83;;;13.30;99.90;;;;;;5034149;28;20198;-80
2023/09/28 02:53:49;;;;;;;8.87;5.90;;;13.30;99.90;;;;;;5034749;28;20186;-80
2023/09/28 02:56:15;;;;;;;6.53;5.93;;;13.20;99.90;;;;;;5034456;28;20179;-80
2023/09/28 02:58:41;;;;;;;7.03;6.33;;;13.20;99.90;;;;;;5034265;28;20232;-80
2023/09/28 03:01:08;;;;;;;8.83;6.50;;;13.10;99.90;;;;;;5016304;28;20181;-80
2023/09/28 03:03:33;;;;;;;7.70;6.90;;;13.00;99.90;;;;;;5016845;28;20166;-80
2023/09/28 03:05:59;;;;;;;8.33;6.70;;;13.00;99.90;;;;;;5034260;28;20225;-80
2023/09/28 03:08:25;;;;;;;6.57;5.80;;;13.00;99.90;;;;;;5016775;28;20171;-80
2023/09/28 03:10:53;;;;;;;6.27;5.60;;;13.00;99.90;;;;;;5034144;28;20174;-80
2023/09/28 03:13:19;;;;;;;6.80;5.57;;;12.80;99.90;;;;;;5033866;28;20201;-81
2023/09/28 03:15:45;;;;;;;6.50;5.90;;;12.70;99.90;;;;;;5034324;28;20178;-80
2023/09/28 03:18:11;;;;;;;8.13;6.07;;;12.70;99.90;;;;;;5016242;28;20259;-80
2023/09/28 03:20:38;;;;;;;6.83;5.90;;;12.60;99.90;;;;;;5033680;28;20193;-81
2023/09/28 03:23:04;;;;;;;7.57;5.80;;;12.60;99.90;;;;;;5016524;28;20187;-80
2023/09/28 03:25:30;;;;;;;6.43;5.83;;;12.60;99.90;;;;;;5033744;28;20171;-80
2023/09/28 03:27:56;;;;;;;7.43;6.30;;;12.60;99.90;;;;;;5016093;28;20205;-80
2023/09/28 03:30:23;;;;;;;6.17;5.57;;;12.70;99.90;;;;;;5034148;28;20178;-80
2023/09/28 03:32:49;;;;;;;6.57;5.97;;;12.80;99.90;;;;;;5033773;28;20674;-80
2023/09/28 03:35:16;;;;;;;6.17;5.50;;;12.80;99.90;;;;;;5016451;28;20662;-80
2023/09/28 03:37:42;;;;;;;5.83;5.30;;;12.70;99.90;;;;;;5015849;28;20175;-81
2023/09/28 03:40:10;;;;;;;7.10;5.60;;;12.60;99.90;;;;;;5033777;28;20181;-80
2023/09/28 03:42:40;;;;;;;7.47;6.60;;;12.60;99.90;;;;;;5033177;28;20217;-81
2023/09/28 03:45:08;;;;;;;6.90;5.83;;;12.70;99.90;;;;;;5034242;28;20173;-80
2023/09/28 03:47:35;;;;;;;6.83;5.87;;;12.80;99.90;;;;;;5033858;28;20174;-81
2023/09/28 03:50:01;;;;;;;6.00;5.40;;;12.90;99.90;;;;;;5016224;28;20166;-80
2023/09/28 03:52:26;;;;;;;6.77;5.70;;;12.90;99.90;;;;;;5015665;28;20213;-80
2023/09/28 03:54:52;;;;;;;5.93;5.33;;;13.00;99.90;;;;;;5032937;28;20186;-80
2023/09/28 03:57:18;;;;;;;6.03;5.50;;;13.10;99.90;;;;;;5034221;28;20254;-80
2023/09/28 03:59:43;;;;;;;7.03;5.40;;;13.20;99.90;;;;;;5016344;28;20646;-80
2023/09/28 04:02:09;;;;;;;5.60;5.10;;;13.20;99.90;;;;;;5033352;28;20192;-80
2023/09/28 04:04:35;;;;;;;6.30;5.70;;;13.30;99.90;;;;;;5016094;28;20170;-80
2023/09/28 04:07:01;;;;;;;7.13;5.60;;;13.20;99.90;;;;;;5015997;28;20323;-80
2023/09/28 04:09:26;;;;;;;6.50;5.90;;;13.10;99.90;;;;;;5016046;28;20219;-81
2023/09/28 04:11:52;;;;;;;6.97;6.23;;;13.10;99.90;;;;;;5015948;28;20276;-80
2023/09/28 04:14:17;;;;;;;6.10;5.50;;;13.00;99.90;;;;;;5033716;28;20244;-80
2023/09/28 04:16:43;;;;;;;7.03;5.40;;;13.00;99.90;;;;;;5033888;28;20301;-80
2023/09/28 04:19:08;;;;;;;7.37;6.23;;;12.90;99.90;;;;;;5033259;28;20206;-80
2023/09/28 04:21:34;;;;;;;6.30;4.93;;;12.90;99.90;;;;;;5015437;28;20194;-80
2023/09/28 04:24:00;;;;;;;5.83;5.17;;;12.90;99.90;;;;;;5015495;28;20174;-80
2023/09/28 04:26:25;;;;;;;5.93;5.10;;;12.80;99.90;;;;;;5015759;28;20232;-80
2023/09/28 04:28:52;;;;;;;5.80;5.27;;;12.70;99.90;;;;;;5015798;28;20201;-80
2023/09/28 04:31:18;;;;;;;7.63;5.67;;;12.70;99.90;;;;;;5015801;28;20185;-80
2023/09/28 04:33:44;;;;;;;6.17;5.30;;;12.80;99.90;;;;;;5033561;28;20183;-80
2023/09/28 04:36:10;;;;;;;6.87;5.67;;;12.90;99.90;;;;;;5032985;28;20186;-80
2023/09/28 04:38:36;;;;;;;7.67;5.43;;;13.00;99.90;;;;;;5033432;28;20225;-81
2023/09/28 04:41:02;;;;;;;5.97;5.30;;;13.00;99.90;;;;;;5033361;28;20202;-80
2023/09/28 04:43:28;;;;;;;6.10;5.33;;;13.10;99.90;;;;;;5015655;28;20182;-80
2023/09/28 04:45:54;;;;;;;8.10;5.50;;;13.10;99.90;;;;;;5033260;28;20171;-80
2023/09/28 04:48:19;;;;;;;5.90;5.30;;;13.20;99.90;;;;;;5033431;28;20221;-80
2023/09/28 04:50:45;;;;;;;6.97;5.43;;;13.10;99.90;;;;;;5033430;28;20170;-80
2023/09/28 04:53:10;;;;;;;7.83;5.73;;;13.10;99.90;;;;;;5033236;28;20198;-80
2023/09/28 04:55:36;;;;;;;5.90;5.30;;;13.10;99.90;;;;;;5015516;28;20688;-80
2023/09/28 04:58:02;;;;;;;6.53;5.73;;;13.20;99.90;;;;;;5033528;28;20401;-80
2023/09/28 05:00:27;;;;;;;6.57;5.40;;;13.30;99.90;;;;;;5033132;28;20166;-80
2023/09/28 05:02:53;;;;;;;5.73;5.13;;;13.30;99.90;;;;;;5033066;28;20194;-80
2023/09/28 05:05:19;;;;;;;5.60;4.77;;;13.20;99.90;;;;;;5034909;28;20178;-80
2023/09/28 05:07:44;;;;;;;7.43;5.00;;;13.20;99.90;;;;;;5018954;28;20178;-80
2023/09/28 05:10:11;;;;;;;5.80;5.20;;;13.20;99.90;;;;;;5036847;28;20171;-81
2023/09/28 05:12:37;;;;;;;8.20;5.70;;;13.20;99.90;;;;;;5017326;28;20194;-82
2023/09/28 05:15:03;;;;;;;6.97;5.70;;;13.20;99.90;;;;;;5016982;28;20175;-82
2023/09/28 05:17:29;;;;;;;8.37;5.97;;;13.20;99.90;;;;;;5017327;28;20178;-82
2023/09/28 05:19:54;;;;;;;6.10;5.50;;;13.20;99.90;;;;;;5017226;28;20206;-83
2023/09/28 05:22:20;;;;;;;5.40;4.80;;;13.30;99.90;;;;;;5034671;28;20183;-82
2023/09/28 05:24:46;;;;;;;5.63;4.40;;;13.20;99.90;;;;;;5034891;28;20170;-82
2023/09/28 05:27:12;;;;;;;5.50;4.60;;;13.20;99.90;;;;;;5016916;28;20170;-82
2023/09/28 05:29:37;;;;;;;5.10;4.67;;;13.20;99.90;;;;;;5016953;28;20257;-82
2023/09/28 05:32:05;;;;;;;6.53;5.27;;;13.30;99.90;;;;;;5016849;28;20194;-82
2023/09/28 05:34:31;;;;;;;5.43;4.93;;;13.30;99.90;;;;;;5034591;28;20555;-83
2023/09/28 05:36:56;;;;;;;5.33;4.83;;;13.40;99.90;;;;;;5016943;28;20174;-82
2023/09/28 05:39:22;;;;;;;7.77;5.20;;;13.40;99.90;;;;;;5016767;28;20339;-82
2023/09/28 05:41:47;;;;;;;7.93;6.10;;;13.30;99.90;;;;;;5020025;28;20206;-82
2023/09/28 05:44:14;;;;;;;7.73;5.80;;;13.30;99.90;;;;;;5038386;28;20166;-83
2023/09/28 05:46:39;;;;;;;6.23;5.63;;;13.20;99.90;;;;;;5021526;28;20174;-83
2023/09/28 05:49:05;;;;;;;6.40;5.70;;;13.20;99.90;;;;;;5021669;28;20549;-84
2023/09/28 05:51:31;;;;;;;6.20;5.43;;;13.20;99.90;;;;;;5022031;28;20248;-82
2023/09/28 05:53:57;;;;;;;5.53;5.00;;;13.20;99.90;;;;;;5039732;28;20178;-82
2023/09/28 05:56:22;;;;;;;6.13;5.10;;;13.20;99.90;;;;;;5021516;28;20174;-82
2023/09/28 05:58:48;;;;;;;7.67;5.63;;;13.20;99.90;;;;;;5039644;28;20202;-83
2023/09/28 06:01:17;;;;;;;6.20;5.37;;;13.20;99.90;;;;;;5021615;28;20297;-83
2023/09/28 06:03:43;;;;;;;7.03;5.90;;;13.20;99.90;;;;;;5037238;28;20236;-83
2023/09/28 06:06:13;;;;;;;6.97;5.60;;;13.30;99.90;;;;;;5034277;28;20197;-82
2023/09/28 06:08:39;;;;;;;6.30;5.50;;;13.30;99.90;;;;;;5033982;28;20212;-82
2023/09/28 06:11:05;;;;;;;6.00;5.40;;;13.50;99.90;;;;;;5015788;28;20722;-82
2023/09/28 06:13:31;;;;;;;7.13;6.20;;;13.50;99.90;;;;;;5016191;28;20174;-82
2023/09/28 06:15:56;;;;;;;7.60;6.17;;;13.50;99.90;;;;;;5033620;28;20185;-82
2023/09/28 06:18:22;;;;;;;6.27;5.67;;;13.60;99.90;;;;;;5033157;28;20331;-83
2023/09/28 06:20:47;;;;;;;6.97;5.90;;;13.60;99.90;;;;;;5033467;28;20198;-82
2023/09/28 06:23:14;;;;;;;7.07;5.73;;;13.70;99.90;;;;;;5033503;28;20274;-82
2023/09/28 06:25:41;;;;;;;7.47;6.33;;;13.70;99.90;;;;;;5033777;28;20245;-83
2023/09/28 06:28:07;;;;;;;6.77;6.00;;;13.70;99.90;;;;;;5033542;28;20221;-82
2023/09/28 06:30:33;;;;;;;6.43;5.83;;;13.80;99.90;;;;;;5015953;28;20293;-82
2023/09/28 06:32:59;;;;;;;7.30;5.73;;;13.90;99.90;;;;;;5015716;28;20319;-82
2023/09/28 06:35:25;;;;;;;8.03;5.73;;;14.00;99.90;;;;;;5016048;28;20182;-82
2023/09/28 06:37:50;;;;;;;6.57;5.97;;;14.00;99.90;;;;;;5015450;28;20174;-82
2023/09/28 06:40:16;;;;;;;9.17;6.03;;;14.10;99.90;;;;;;5015801;28;20186;-82
2023/09/28 06:42:41;;;;;;;7.27;6.20;;;14.20;99.90;;;;;;5045498;23;20221;-83
2023/09/28 06:45:07;;;;;;;6.30;5.70;;;14.30;99.90;;;;;;5054219;28;20166;-82
2023/09/28 06:47:33;;;;;;;6.93;6.23;;;14.30;99.90;;;;;;5054176;28;20715;-83
2023/09/28 06:49:59;;;;;;;7.50;6.17;;;14.40;99.90;;;;;;5054848;28;20174;-84
2023/09/28 06:52:25;;;;;;;6.53;5.60;;;14.50;99.90;;;;;;5052870;28;20194;-83
2023/09/28 06:54:51;;;;;;;6.50;5.80;;;14.50;99.90;;;;;;5052581;28;20174;-83
2023/09/28 06:57:17;;;;;;;6.90;6.13;;;14.60;99.90;;;;;;5054325;28;20239;-83
2023/09/28 06:59:47;;;;;;;6.83;6.17;;;14.70;99.90;;;;;;5053997;28;20268;-82
2023/09/28 07:02:13;;;;;;;7.33;6.63;;;14.80;99.90;;;;;;5052677;28;20194;-83
2023/09/28 07:04:38;;;;;;;7.40;6.70;;;14.80;99.90;;;;;;5052549;28;20177;-82
2023/09/28 07:07:05;;;;;;;9.77;6.90;;;14.90;99.90;;;;;;5052936;28;20173;-83
2023/09/28 07:09:31;;;;;;;7.90;7.10;;;15.00;99.90;;;;;;5053779;28;20300;-83
2023/09/28 07:11:56;;;;;;;8.07;7.27;;;15.10;99.90;;;;;;5053808;28;20214;-83
2023/09/28 07:14:22;;;;;;;8.23;7.43;;;15.10;99.90;;;;;;5054160;28;20188;-83
2023/09/28 07:16:48;;;;;;;8.83;7.50;;;15.20;99.90;;;;;;5053755;28;20189;-83
2023/09/28 07:19:13;;;;;;;8.13;7.33;;;15.30;99.90;;;;;;5052027;28;20201;-84
2023/09/28 07:21:39;;;;;;;8.80;7.27;;;15.40;99.90;;;;;;5053363;28;20193;-82
2023/09/28 07:24:05;;;;;;;9.47;7.10;;;15.40;99.90;;;;;;5052387;28;20204;-82
2023/09/28 07:26:32;;;;;;;9.20;7.33;;;15.50;99.90;;;;;;5052526;28;20176;-83
2023/09/28 07:28:59;;;;;;;8.83;7.20;;;15.60;99.90;;;;;;5052696;28;20178;-83
2023/09/28 07:31:24;;;;;;;7.73;7.03;;;15.70;99.90;;;;;;5052840;28;20178;-83
2023/09/28 07:33:50;;;;;;;8.10;7.20;;;15.70;99.90;;;;;;5053455;28;20235;-83
2023/09/28 07:36:17;;;;;;;7.50;6.63;;;15.80;99.90;;;;;;5053464;28;20188;-83
2023/09/28 07:38:43;;;;;;;7.83;6.83;;;15.90;99.90;;;;;;5053446;28;20189;-83
2023/09/28 07:41:10;;;;;;;7.70;6.87;;;16.00;99.90;;;;;;5052277;28;20170;-83
2023/09/28 07:43:35;;;;;;;7.33;6.63;;;16.10;99.90;;;;;;5053216;28;20288;-83
2023/09/28 07:46:01;;;;;;;7.50;6.57;;;16.20;99.90;;;;;;5052055;28;20678;-82
2023/09/28 07:48:26;;;;;;;8.13;6.60;;;16.30;99.90;;;;;;5052289;28;20174;-83
2023/09/28 07:50:52;;;;;;;9.50;7.03;;;16.40;99.90;;;;;;5053628;28;20165;-83
2023/09/28 07:53:19;;;;;;;7.67;6.90;;;16.50;99.90;;;;;;5053527;28;20280;-83
2023/09/28 07:55:44;;;;;;;9.57;7.63;;;16.60;99.90;;;;;;5052066;28;20174;-84
2023/09/28 07:58:10;;;;;;;10.17;7.03;;;16.90;99.90;;;;;;5053498;28;20239;-83
2023/09/28 08:00:36;;;;;;;8.00;7.03;;;17.10;99.90;;;;;;5051665;28;20224;-80
2023/09/28 08:03:03;;;;;;;10.47;7.40;;;17.30;99.90;;;;;;5051901;28;20189;-83
2023/09/28 08:05:28;;;;;;;8.97;7.97;;;17.40;99.90;;;;;;5053548;28;20190;-83
2023/09/28 08:07:54;;;;;;;8.63;7.83;;;17.40;99.90;;;;;;5051931;28;20180;-83
2023/09/28 08:10:20;;;;;;;10.77;8.10;;;17.40;99.90;;;;;;5052434;28;20291;-83
2023/09/28 08:12:46;;;;;;;8.13;6.97;;;17.40;99.90;;;;;;5053334;28;20198;-83
2023/09/28 08:15:12;;;;;;;8.60;7.70;;;17.40;99.90;;;;;;5052001;28;20224;-82
2023/09/28 08:17:39;;;;;;;8.00;7.20;;;17.40;99.90;;;;;;5051831;28;20173;-83
2023/09/28 08:20:07;;;;;;;8.00;7.20;;;17.40;99.90;;;;;;5051506;28;20180;-83
2023/09/28 08:22:34;;;;;;;9.23;7.00;;;17.40;99.90;;;;;;5051478;28;20224;-83
2023/09/28 08:25:00;;;;;;;11.17;7.87;;;17.50;99.90;;;;;;5051592;28;20170;-83
2023/09/28 08:27:25;;;;;;;9.23;7.03;;;17.90;99.90;;;;;;5051893;28;20273;-85
2023/09/28 08:29:51;;;;;;;8.10;6.90;;;18.20;99.90;;;;;;5051783;28;20178;-82
2023/09/28 08:32:16;;;;;;;10.80;7.23;;;18.50;99.90;;;;;;5051456;28;20217;-83
2023/09/28 08:34:43;;;;;;;8.27;7.47;;;18.80;99.90;;;;;;5053252;28;20174;-84
2023/09/28 08:37:09;;;;;;;8.90;6.63;;;19.00;99.90;;;;;;5053142;28;20180;-83
2023/09/28 08:39:37;;;;;;;6.93;6.27;;;19.30;99.90;;;;;;5052158;28;20201;-84
2023/09/28 08:42:05;;;;;;;8.32;6.10;;;19.50;99.90;;;;;;5055386;28;20201;-83
2023/09/28 08:44:32;;;;;;;10.60;6.50;;;19.60;99.90;;;;;;5055867;28;20181;-83
2023/09/28 08:46:59;;;;;;;6.35;5.75;;;19.70;99.90;;;;;;5055725;28;20197;-84
2023/09/28 08:49:31;;;;;;;6.63;5.78;;;19.60;99.90;;;;;;5055469;28;20178;-83
2023/09/28 08:51:57;;;;;;;5.93;5.38;;;19.50;99.90;;;;;;5056498;28;20189;-83
2023/09/28 08:54:23;;;;;;;6.78;5.95;;;19.30;99.90;;;;;;5056422;28;20174;-83
2023/09/28 08:56:50;;;;;;;6.95;5.38;;;19.40;99.90;;;;;;5056698;28;20234;-83
2023/09/28 08:59:17;;;;;;;5.95;5.32;;;19.40;99.90;;;;;;5055292;28;20205;-83
2023/09/28 09:01:43;;;;;;;6.47;5.32;;;19.50;99.90;;;;;;5056405;28;20193;-83
2023/09/28 09:04:09;;;;;;;5.47;4.97;;;19.50;99.90;;;;;;5056611;28;20178;-83
2023/09/28 09:06:35;;;;;;;5.60;5.10;;;19.60;99.90;;;;;;5056759;28;20255;-83
2023/09/28 09:09:05;;;;;;;9.80;5.05;;;19.90;99.90;;;;;;5055509;28;20181;-84
2023/09/28 09:11:33;;;;;;;8.60;5.13;;;20.30;99.90;;;;;;5054702;28;20246;-83
2023/09/28 09:13:59;;;;;;;5.93;4.80;;;20.50;1.00;;;;;;5054951;28;20607;-83
2023/09/28 09:16:27;;;;;;;5.35;4.60;;;20.70;1.00;;;;;;5056606;28;20188;-83
2023/09/28 09:18:54;;;;;;;7.60;5.68;;;20.80;1.00;;;;;;5054768;28;20194;-83
2023/09/28 09:21:24;;;;;;;5.50;4.70;;;21.10;1.00;;;;;;5054845;28;20181;-83
2023/09/28 09:24:03;;;;;;;6.80;4.53;;;21.20;1.00;;;;;;5054621;28;20161;-84
2023/09/28 09:26:38;;;;;;;6.28;4.47;;;21.40;1.00;;;;;;5055916;28;20178;-83
2023/09/28 09:29:03;;;;;;;6.75;4.30;;;21.40;1.00;;;;;;5055114;28;20180;-83
2023/09/28 09:31:30;;;;;;;6.05;4.00;;;21.50;1.00;;;;;;5054684;28;20178;-84
2023/09/28 09:33:56;;;;;;;3.97;3.55;;;21.60;1.00;;;;;;5055127;28;20232;-83
2023/09/28 09:36:21;;;;;;;4.82;3.95;;;21.70;99.90;;;;;;5054894;28;20178;-84
2023/09/28 09:38:50;;;;;;;4.20;3.80;;;21.70;1.00;;;;;;5054742;28;20243;-83
2023/09/28 09:41:16;;;;;;;4.50;4.10;;;21.90;1.00;;;;;;5054580;28;20180;-83
2023/09/28 09:43:42;;;;;;;7.03;4.07;;;21.90;99.90;;;;;;5055928;28;20288;-83
2023/09/28 09:46:09;;;;;;;5.82;3.83;;;22.00;99.90;;;;;;5056571;28;20572;-82
2023/09/28 09:48:55;;;;;;;4.97;3.60;;;22.10;99.90;;;;;;5054977;28;20209;-83
2023/09/28 09:51:21;;;;;;;4.40;3.80;;;22.10;97.10;;;;;;5053794;28;20184;-83
2023/09/28 09:53:47;;;;;;;4.35;3.60;;;22.30;1.00;;;;;;5056232;28;20193;-83
2023/09/28 09:56:15;;;;;;;4.25;3.50;;;22.40;99.90;;;;;;5054724;28;20269;-83
2023/09/28 09:58:42;;;;;;;5.57;3.78;;;22.50;1.00;;;;;;5054830;28;20764;-83
2023/09/28 10:01:12;;;;;;;4.03;3.60;;;22.50;46.00;;;;;;5053922;28;20204;-83
2023/09/28 10:03:45;;;;;;;4.82;3.95;;;22.60;1.00;;;;;;5055568;28;20185;-83
2023/09/28 10:06:11;;;;;;;3.70;3.28;;;22.70;1.00;;;;;;5055682;28;20662;-83
2023/09/28 10:08:38;;;;;;;4.82;3.47;;;22.70;1.00;;;;;;5055735;28;20184;-83
2023/09/28 10:11:04;;;;;;;4.93;3.85;;;22.90;47.80;;;;;;5055663;28;20177;-83
2023/09/28 10:13:31;;;;;;;3.90;3.60;;;22.90;1.00;;;;;;5054182;28;20198;-83
2023/09/28 10:16:00;;;;;;;3.92;3.53;;;23.00;99.90;;;;;;5055704;28;20185;-83
2023/09/28 10:18:29;;;;;;;6.22;3.58;;;23.00;99.90;;;;;;5055644;28;20193;-84
2023/09/28 10:20:55;;;;;;;5.20;3.35;;;23.20;99.90;;;;;;5055815;28;20173;-84
2023/09/28 10:23:24;;;;;;;3.70;3.40;;;23.30;1.00;;;;;;5055547;28;20239;-83
2023/09/28 10:25:54;;;;;;;4.55;3.35;;;23.30;99.90;;;;;;5055649;28;20170;-83
2023/09/28 10:28:20;;;;;;;4.25;3.25;;;23.40;99.90;;;;;;5054186;28;20178;-83
2023/09/28 10:30:46;;;;;;;3.67;3.30;;;23.40;99.90;;;;;;5054625;28;20178;-83
2023/09/28 10:33:12;;;;;;;5.28;3.42;;;23.50;99.90;;;;;;5054057;28;20678;-83
2023/09/28 10:35:39;;;;;;;3.35;3.05;;;23.60;99.90;;;;;;5053958;28;20178;-83
2023/09/28 10:38:21;;;;;;;3.53;3.22;;;23.70;28.90;;;;;;5053511;28;20259;-84
2023/09/28 10:41:01;;;;;;;3.92;3.22;;;23.80;1.00;;;;;;5053545;28;20173;-83
2023/09/28 10:43:31;;;;;;;4.70;3.50;;;23.90;41.10;;;;;;5053920;28;20209;-83
2023/09/28 10:46:01;;;;;;;5.65;3.15;;;23.90;1.00;;;;;;5055271;28;20177;-83
2023/09/28 10:48:26;;;;;;;4.57;3.40;;;24.10;1.00;;;;;;5054722;28;20649;-83
2023/09/28 10:50:53;;;;;;;3.47;3.17;;;24.20;99.90;;;;;;5053059;28;20198;-83
2023/09/28 10:53:19;;;;;;;4.10;3.42;;;24.30;1.00;;;;;;5054785;28;20205;-83
2023/09/28 10:55:44;;;;;;;3.50;3.20;;;24.50;99.90;;;;;;5053493;28;20173;-83
2023/09/28 10:58:11;;;;;;;5.10;3.28;;;24.50;1.00;;;;;;5053499;28;20680;-83
2023/09/28 11:00:37;;;;;;;3.40;3.10;;;24.70;1.00;;;;;;5054462;28;20176;-82
2023/09/28 11:03:04;;;;;;;3.50;2.90;;;24.70;99.90;;;;;;5054471;28;20193;-84
2023/09/28 11:05:30;;;;;;;3.35;3.05;;;24.90;99.90;;;;;;5054187;28;20242;-84
2023/09/28 11:07:59;;;;;;;4.75;3.45;;;24.90;99.90;;;;;;5054680;28;20181;-84
2023/09/28 11:10:25;;;;;;;4.38;2.92;;;25.00;1.00;;;;;;5054274;28;20177;-83
2023/09/28 11:12:50;;;;;;;3.92;2.88;;;25.00;1.00;;;;;;5054182;28;20577;-83
2023/09/28 11:15:16;;;;;;;3.15;2.85;;;25.10;1.00;;;;;;5054542;28;20233;-83
2023/09/28 11:17:42;;;;;;;3.90;2.75;;;25.20;1.00;;;;;;5053131;28;20181;-85
2023/09/28 11:20:11;;;;;;;3.45;2.63;;;25.30;1.00;;;;;;5052769;28;20693;-83
2023/09/28 11:22:37;;;;;;;5.10;3.22;;;25.30;99.90;;;;;;5053806;28;20193;-83
2023/09/28 11:25:03;;;;;;;5.78;2.72;;;25.30;99.90;;;;;;5052977;28;20182;-84
2023/09/28 11:27:29;;;;;;;3.20;2.80;;;25.60;1.00;;;;;;5052538;28;20169;-83
2023/09/28 11:29:56;;;;;;;8.88;2.80;;;25.70;99.90;;;;;;5053817;28;20177;-83
2023/09/28 11:32:21;;;;;;;2.95;2.65;;;25.80;99.90;;;;;;5053448;28;20197;-83
2023/09/28 11:34:47;;;;;;;3.63;2.80;;;26.10;1.00;;;;;;5053761;28;20186;-83
2023/09/28 11:37:14;;;;;;;4.68;2.70;;;26.30;99.90;;;;;;5052459;28;20178;-83
2023/09/28 11:39:40;;;;;;;3.22;2.78;;;26.30;99.90;;;;;;5053796;28;20233;-83
2023/09/28 11:42:07;;;;;;;4.35;2.80;;;26.30;24.20;;;;;;5053314;28;20209;-83
2023/09/28 11:44:32;;;;;;;2.90;2.70;;;26.00;98.10;;;;;;5052276;28;20173;-84
2023/09/28 11:46:58;;;;;;;3.30;2.75;;;26.30;99.90;;;;;;5053881;28;20169;-83
2023/09/28 11:49:24;;;;;;;3.30;2.97;;;26.30;99.90;;;;;;5052633;28;20169;-83
2023/09/28 11:51:54;;;;;;;3.00;2.70;;;26.20;99.90;;;;;;5053742;28;20185;-83
2023/09/28 11:54:21;;;;;;;3.40;3.10;;;26.20;99.90;;;;;;5053768;28;20642;-83
2023/09/28 11:56:50;;;;;;;4.57;2.95;;;26.40;1.00;;;;;;5053165;28;20268;-83
2023/09/28 11:59:16;;;;;;;2.95;2.75;;;26.50;99.90;;;;;;5051851;28;20251;-83
2023/09/28 12:01:43;;;;;;;4.63;2.97;;;26.30;99.90;;;;;;5053112;28;20242;-83
2023/09/28 12:04:09;;;;;;;3.40;2.60;;;26.40;99.90;;;;;;5053574;28;20166;-83
2023/09/28 12:06:35;;;;;;;3.35;3.05;;;26.60;99.90;;;;;;5052039;28;20206;-85
2023/09/28 12:09:01;;;;;;;3.53;3.10;;;26.80;99.90;;;;;;5052001;28;20173;-83
2023/09/28 12:11:26;;;;;;;3.63;2.70;;;27.00;99.90;;;;;;5053066;28;20218;-83
2023/09/28 12:13:52;;;;;;;4.80;3.00;;;27.10;1.00;;;;;;5053377;28;20174;-83
2023/09/28 12:16:19;;;;;;;3.50;2.83;;;27.10;1.00;;;;;;5054886;28;20176;-83
2023/09/28 12:18:44;;;;;;;3.20;2.90;;;27.30;1.00;;;;;;5056016;28;20197;-83
2023/09/28 12:21:11;;;;;;;3.75;2.95;;;27.40;1.00;;;;;;5057137;28;20176;-83
2023/09/28 12:23:37;;;;;;;3.60;2.90;;;27.40;1.00;;;;;;5055854;28;20193;-83
2023/09/28 12:26:03;;;;;;;3.15;2.85;;;27.60;1.00;;;;;;5055779;28;20295;-83
2023/09/28 12:28:28;;;;;;;4.32;2.72;;;27.70;1.00;;;;;;5055734;28;20384;-83
2023/09/28 12:30:54;;;;;;;4.55;2.90;;;27.50;1.00;;;;;;5055284;28;20177;-83
2023/09/28 12:33:19;;;;;;;4.00;3.00;;;27.50;1.00;;;;;;5055523;28;20193;-83
2023/09/28 12:35:47;;;;;;;4.68;3.00;;;27.80;1.00;;;;;;5055420;28;20182;-83
2023/09/28 12:38:13;;;;;;;4.55;3.03;;;28.00;1.00;;;;;;5055489;28;20194;-83
2023/09/28 12:40:39;;;;;;;3.38;3.08;;;27.90;1.00;;;;;;5056628;28;20182;-83
2023/09/28 12:43:05;;;;;;;3.88;2.78;;;27.60;1.00;;;;;;5094567;23;20276;-80